Météo Nord-Pas-de-Calais   La météo au plus près de chez vous

Station météorologique

Observations météo à Brive-Souillac (19147)

19147001 295 m Dernier relevé à 23:12
20°C
Humidité 65 % Vent 0 km/h 1021.6 hPa

Journée consultée

Samedi 5 Septembre 2026

Synthèse de la journée

Périodes de référence en UTC

Température maximale

31.5°C

à 17:00

06h 06h

Température minimale

13.6°C

à 07:42

18h 18h

Rafale maximale

22 km/h

à 17:18

00h 00h

Précipitations

0 mm

Cumul quotidien

06h 06h

Graphiques de la journée

Heure locale Réduire

Données détaillées

Relevés météo

Pas de 6 minutes Afficher les relevés infra-horaires
Relevés météo détaillés à Brive-Souillac pour le Samedi 5 Septembre 2026
Heure Température °C Point de rosée °C Humidité % Vent moyen (raf.), km/h Précipitations mm Visibilité m Pression hPa
23:12 20 °C 14.4 °C 70 % 2 km/h (4 km/h) 0 mm0 mm 60000 m 1021.6 hPa
23:06 20.1 °C 14.5 °C 70 % 2 km/h (4 km/h) 0 mm0 mm 60000 m 1021.6 hPa
23:00 20.2 °C 14.3 °C 69 % 2 km/h (3 km/h) 0 mm0 mm 60000 m 1021.6 hPa
22:54 20.5 °C 14.4 °C 68 % 0 km/h (3 km/h) 0 mm0 mm 60000 m 1021.6 hPa
22:48 20.5 °C 14.4 °C 68 % 0 km/h (3 km/h) 0 mm0 mm 60000 m 1021.6 hPa
22:42 20.6 °C 14.5 °C 68 % 0 km/h (2 km/h) 0 mm0 mm 60000 m 1021.6 hPa
22:36 20.7 °C 14.3 °C 67 % 2 km/h (3 km/h) 0 mm0 mm 60000 m 1021.7 hPa
22:30 20.8 °C 14.4 °C 67 % 0 km/h (3 km/h) 0 mm0 mm 60000 m 1021.8 hPa
22:24 21.1 °C 14.5 °C 66 % 0 km/h (2 km/h) 0 mm0 mm 60000 m 1021.6 hPa
22:18 21.2 °C 14.4 °C 65 % 0 km/h (2 km/h) 0 mm0 mm 60000 m 1021.7 hPa
22:12 21.4 °C 14.5 °C 65 % 0 km/h (0 km/h) 0 mm0 mm 60000 m 1021.6 hPa
22:06 21.6 °C 14.5 °C 64 % 0 km/h (2 km/h) 0 mm0 mm 60000 m 1021.7 hPa
22:00 21.8 °C 14.4 °C 63 % 0 km/h (2 km/h) 0 mm0 mm 60000 m 1021.7 hPa
21:54 22 °C 14.6 °C 63 % 0 km/h (2 km/h) 0 mm0 mm 60000 m 1021.6 hPa
21:48 22.2 °C 14.6 °C 62 % 0 km/h (0 km/h) 0 mm0 mm 60000 m 1021.6 hPa
21:42 22.5 °C 14.6 °C 61 % 0 km/h (0 km/h) 0 mm0 mm 60000 m 1021.6 hPa
21:36 22.7 °C 14.5 °C 60 % 0 km/h (2 km/h) 0 mm0 mm 60000 m 1021.6 hPa
21:30 23 °C 14.6 °C 59 % 0 km/h (3 km/h) 0 mm0 mm 60000 m 1021.6 hPa
21:24 23.4 °C 14.7 °C 58 % 0 km/h (3 km/h) 0 mm0 mm 60000 m 1021.5 hPa
21:18 23.6 °C 14.9 °C 58 % 2 km/h (4 km/h) 0 mm0 mm 60000 m 1021.5 hPa
21:12 23.8 °C 14.8 °C 57 % 2 km/h (4 km/h) 0 mm0 mm 60000 m 1021.5 hPa
21:06 24.1 °C 14.8 °C 56 % 0 km/h (2 km/h) 0 mm0 mm 60000 m 1021.3 hPa
21:00 24.7 °C 14.8 °C 54 % 0 km/h (2 km/h) 0 mm0 mm 60000 m 1021.2 hPa
20:54 25.1 °C 14.8 °C 53 % 0 km/h (3 km/h) 0 mm0 mm 60000 m 1021.2 hPa
20:48 25.3 °C 14.7 °C 52 % 2 km/h (4 km/h) 0 mm0 mm 60000 m 1021.2 hPa
20:42 25.8 °C 14.9 °C 51 % 2 km/h (4 km/h) 0 mm0 mm 60000 m 1021.1 hPa
20:36 26.4 °C 14.8 °C 49 % 0 km/h (3 km/h) 0 mm0 mm 60000 m 1021 hPa
20:30 27 °C 15.1 °C 48 % 3 km/h (4 km/h) 0 mm0 mm 60000 m 1020.9 hPa
20:24 27.4 °C 14.8 °C 46 % 4 km/h (6 km/h) 0 mm0 mm 60000 m 1020.9 hPa
20:18 27.6 °C 14.9 °C 46 % 5 km/h (7 km/h) 0 mm0 mm 60000 m 1020.9 hPa
20:12 27.9 °C 14.9 °C 45 % 7 km/h (9 km/h) 0 mm0 mm 60000 m 1020.8 hPa
20:06 28.6 °C 14.8 °C 43 % 7 km/h (9 km/h) 0 mm0 mm 60000 m 1020.8 hPa
20:00 29.3 °C 14.7 °C 41 % 6 km/h (9 km/h) 0 mm0 mm 60000 m 1020.6 hPa
19:54 29.8 °C 14.4 °C 39 % 5 km/h (9 km/h) 0 mm0 mm 60000 m 1020.5 hPa
19:48 30 °C 14.5 °C 39 % 6 km/h (10 km/h) 0 mm0 mm 60000 m 1020.5 hPa
19:42 30 °C 14.5 °C 39 % 7 km/h (11 km/h) 0 mm0 mm 60000 m 1020.5 hPa
19:36 30.1 °C 14.6 °C 39 % 6 km/h (11 km/h) 0 mm0 mm 60000 m 1020.5 hPa
19:30 30.1 °C 14.6 °C 39 % 8 km/h (14 km/h) 0 mm0 mm 60000 m 1020.5 hPa
19:24 30.3 °C 14.4 °C 38 % 10 km/h (14 km/h) 0 mm0 mm 60000 m 1020.5 hPa
19:18 30.4 °C 14.5 °C 38 % 10 km/h (14 km/h) 0 mm0 mm 60000 m 1020.5 hPa
19:12 30.5 °C 14.6 °C 38 % 10 km/h (16 km/h) 0 mm0 mm 60000 m 1020.5 hPa
19:06 30.5 °C 14.2 °C 37 % 11 km/h (17 km/h) 0 mm0 mm 60000 m 1020.5 hPa
19:00 30.6 °C 14.2 °C 37 % 12 km/h (17 km/h) 0 mm0 mm 60000 m 1020.5 hPa
18:54 30.7 °C 14.3 °C 37 % 12 km/h (17 km/h) 0 mm0 mm 60000 m 1020.6 hPa
18:48 30.7 °C 14.3 °C 37 % 10 km/h (16 km/h) 0 mm0 mm 60000 m 1020.5 hPa
18:42 30.8 °C 14.4 °C 37 % 9 km/h (16 km/h) 0 mm0 mm 60000 m 1020.5 hPa
18:36 30.7 °C 14.3 °C 37 % 12 km/h (22 km/h) 0 mm0 mm 60000 m 1020.6 hPa
18:30 31 °C 14.6 °C 37 % 13 km/h (22 km/h) 0 mm0 mm 60000 m 1020.6 hPa
18:24 30.7 °C 13.9 °C 36 % 13 km/h (19 km/h) 0 mm0 mm 60000 m 1020.7 hPa
18:18 30.9 °C 14.1 °C 36 % 11 km/h (19 km/h) 0 mm0 mm 60000 m 1020.8 hPa
18:12 30.7 °C 13.9 °C 36 % 12 km/h (21 km/h) 0 mm0 mm 60000 m 1020.7 hPa
18:06 30.5 °C 14.2 °C 37 % 13 km/h (21 km/h) 0 mm0 mm 60000 m 1020.8 hPa
18:00 30.8 °C 14 °C 36 % 13 km/h (19 km/h) 0 mm0 mm 60000 m 1020.8 hPa
17:54 30.7 °C 13.9 °C 36 % 12 km/h (20 km/h) 0 mm0 mm 60000 m 1020.8 hPa
17:48 31 °C 14.2 °C 36 % 12 km/h (20 km/h) 0 mm0 mm 60000 m 1020.8 hPa
17:42 31 °C 14.2 °C 36 % 13 km/h (20 km/h) 0 mm0 mm 60000 m 1020.9 hPa
17:36 31.1 °C 13.8 °C 35 % 11 km/h (20 km/h) 0 mm0 mm 60000 m 1020.9 hPa
17:30 30.9 °C 13.7 °C 35 % 9 km/h (19 km/h) 0 mm0 mm 60000 m 1020.9 hPa
17:24 30.8 °C 13.6 °C 35 % 13 km/h (21 km/h) 0 mm0 mm 60000 m 1021 hPa
17:18 31.1 °C 13.4 °C 34 % 14 km/h (22 km/h) 0 mm0 mm 60000 m 1021.1 hPa
17:12 31 °C 13.3 °C 34 % 14 km/h (22 km/h) 0 mm0 mm 60000 m 1021.1 hPa
17:06 31.1 °C 12.9 °C 33 % 13 km/h (20 km/h) 0 mm0 mm 60000 m 1021.1 hPa
17:00 31.1 °C 13.4 °C 34 % 14 km/h (20 km/h) 0 mm0 mm 60000 m 1021.2 hPa
16:54 30.8 °C 12.7 °C 33 % 12 km/h (21 km/h) 0 mm0 mm 60000 m 1021.2 hPa
16:48 31.1 °C 13.4 °C 34 % 11 km/h (21 km/h) 0 mm0 mm 60000 m 1021.1 hPa
16:42 31 °C 13.3 °C 34 % 12 km/h (19 km/h) 0 mm0 mm 60000 m 1021.1 hPa
16:36 31.3 °C 13.1 °C 33 % 12 km/h (17 km/h) 0 mm0 mm 60000 m 1021.3 hPa
16:30 31.1 °C 12.9 °C 33 % 10 km/h (17 km/h) 0 mm0 mm 60000 m 1021.4 hPa
16:24 31.1 °C 12.9 °C 33 % 7 km/h (17 km/h) 0 mm0 mm 60000 m 1021.4 hPa
16:18 30.8 °C 12.7 °C 33 % 8 km/h (14 km/h) 0 mm0 mm 60000 m 1021.5 hPa
16:12 31.3 °C 11.7 °C 30 % 7 km/h (14 km/h) 0 mm0 mm 60000 m 1021.5 hPa
16:06 31.3 °C 12.6 °C 32 % 6 km/h (13 km/h) 0 mm0 mm 60000 m 1021.6 hPa
16:00 30.6 °C 12.5 °C 33 % 9 km/h (18 km/h) 0 mm0 mm 60000 m 1021.7 hPa
15:54 30.6 °C 12.5 °C 33 % 9 km/h (18 km/h) 0 mm0 mm 60000 m 1021.8 hPa
15:48 30.9 °C 12.8 °C 33 % 9 km/h (15 km/h) 0 mm0 mm 60000 m 1021.8 hPa
15:42 30.7 °C 12.6 °C 33 % 8 km/h (15 km/h) 0 mm0 mm 60000 m 1021.8 hPa
15:36 30.3 °C 12.7 °C 34 % 8 km/h (17 km/h) 0 mm0 mm 60000 m 1021.9 hPa
15:30 30.1 °C 12.5 °C 34 % 9 km/h (18 km/h) 0 mm0 mm 60000 m 1022.1 hPa
15:24 30.2 °C 12.6 °C 34 % 9 km/h (18 km/h) 0 mm0 mm 60000 m 1022 hPa
15:18 30.1 °C 12.5 °C 34 % 10 km/h (20 km/h) 0 mm0 mm 60000 m 1022.2 hPa
15:12 30.1 °C 13 °C 35 % 11 km/h (20 km/h) 0 mm0 mm 60000 m 1022.2 hPa
15:06 30 °C 12.9 °C 35 % 9 km/h (19 km/h) 0 mm0 mm 60000 m 1022.3 hPa
15:00 29.7 °C 13 °C 36 % 8 km/h (15 km/h) 0 mm0 mm 60000 m 1022.4 hPa
14:54 29.6 °C 12.9 °C 36 % 9 km/h (21 km/h) 0 mm0 mm 60000 m 1022.4 hPa
14:48 29.8 °C 13.1 °C 36 % 11 km/h (21 km/h) 0 mm0 mm 60000 m 1022.5 hPa
14:42 29.7 °C 13 °C 36 % 8 km/h (17 km/h) 0 mm0 mm 60000 m 1022.6 hPa
14:36 29.8 °C 13.5 °C 37 % 6 km/h (13 km/h) 0 mm0 mm 60000 m 1022.5 hPa
14:30 29.3 °C 13.1 °C 37 % 8 km/h (18 km/h) 0 mm0 mm 60000 m 1022.6 hPa
14:24 29.3 °C 12.7 °C 36 % 10 km/h (21 km/h) 0 mm0 mm 60000 m 1022.7 hPa
14:18 29.3 °C 12.3 °C 35 % 9 km/h (19 km/h) 0 mm0 mm 60000 m 1022.8 hPa
14:12 29.4 °C 13.2 °C 37 % 8 km/h (14 km/h) 0 mm0 mm 60000 m 1022.8 hPa
14:06 29 °C 13.2 °C 38 % 7 km/h (14 km/h) 0 mm0 mm 60000 m 1022.8 hPa
14:00 28.7 °C 14.1 °C 41 % 8 km/h (15 km/h) 0 mm0 mm 60000 m 1022.9 hPa
13:54 28.5 °C 13.2 °C 39 % 8 km/h (15 km/h) 0 mm0 mm 60000 m 1023 hPa
13:48 28.6 °C 13.7 °C 40 % 8 km/h (14 km/h) 0 mm0 mm 60000 m 1022.9 hPa
13:42 27.8 °C 13 °C 40 % 9 km/h (15 km/h) 0 mm0 mm 60000 m 1023 hPa
13:36 28.1 °C 13.2 °C 40 % 11 km/h (16 km/h) 0 mm0 mm 60000 m 1023.1 hPa
13:30 27.9 °C 13 °C 40 % 11 km/h (17 km/h) 0 mm0 mm 60000 m 1023.2 hPa
13:24 28 °C 13.5 °C 41 % 11 km/h (19 km/h) 0 mm0 mm 60000 m 1023.2 hPa
13:18 27.8 °C 13.3 °C 41 % 11 km/h (19 km/h) 0 mm0 mm 60000 m 1023.3 hPa
13:12 28 °C 13.5 °C 41 % 11 km/h (17 km/h) 0 mm0 mm 60000 m 1023.4 hPa
13:06 27.6 °C 13.5 °C 42 % 12 km/h (22 km/h) 0 mm0 mm 60000 m 1023.5 hPa
13:00 27.5 °C 13.1 °C 41 % 11 km/h (19 km/h) 0 mm0 mm 60000 m 1023.4 hPa
12:54 27.6 °C 13.5 °C 42 % 10 km/h (19 km/h) 0 mm0 mm 60000 m 1023.4 hPa
12:48 27.6 °C 13.5 °C 42 % 9 km/h (18 km/h) 0 mm0 mm 60000 m 1023.4 hPa
12:42 27.1 °C 12.3 °C 40 % 9 km/h (17 km/h) 0 mm0 mm 60000 m 1023.4 hPa
12:36 27.3 °C 13.6 °C 43 % 10 km/h (17 km/h) 0 mm0 mm 60000 m 1023.4 hPa
12:30 27 °C 13.4 °C 43 % 8 km/h (14 km/h) 0 mm0 mm 60000 m 1023.4 hPa
12:24 27 °C 13.7 °C 44 % 9 km/h (15 km/h) 0 mm0 mm 60000 m 1023.4 hPa
12:18 26.9 °C 12.9 °C 42 % 6 km/h (15 km/h) 0 mm0 mm 60000 m 1023.5 hPa
12:12 27.1 °C 13.4 °C 43 % 5 km/h (9 km/h) 0 mm0 mm 60000 m 1023.4 hPa
12:06 26.5 °C 13.3 °C 44 % 6 km/h (10 km/h) 0 mm0 mm 60000 m 1023.5 hPa
12:00 26.6 °C 13 °C 43 % 4 km/h (9 km/h) 0 mm0 mm 60000 m 1023.5 hPa
11:54 26.7 °C 13.1 °C 43 % 3 km/h (8 km/h) 0 mm0 mm 60000 m 1023.5 hPa
11:48 26.3 °C 13.1 °C 44 % 4 km/h (9 km/h) 0 mm0 mm 60000 m 1023.5 hPa
11:42 26 °C 12.8 °C 44 % 4 km/h (9 km/h) 0 mm0 mm 60000 m 1023.6 hPa
11:36 26 °C 13.1 °C 45 % 4 km/h (9 km/h) 0 mm0 mm 60000 m 1023.6 hPa
11:30 25.6 °C 13.1 °C 46 % 4 km/h (8 km/h) 0 mm0 mm 60000 m 1023.6 hPa
11:24 24.9 °C 12.8 °C 47 % 4 km/h (8 km/h) 0 mm0 mm 60000 m 1023.7 hPa
11:18 25 °C 12.9 °C 47 % 5 km/h (10 km/h) 0 mm0 mm 60000 m 1023.6 hPa
11:12 25 °C 12.6 °C 46 % 6 km/h (10 km/h) 0 mm0 mm 60000 m 1023.6 hPa
11:06 24.6 °C 12.5 °C 47 % 5 km/h (9 km/h) 0 mm0 mm 60000 m 1023.5 hPa
11:00 24.5 °C 13.1 °C 49 % 5 km/h (10 km/h) 0 mm0 mm 60000 m 1023.4 hPa
10:54 24.2 °C 13.1 °C 50 % 6 km/h (10 km/h) 0 mm0 mm 60000 m 1023.5 hPa
10:48 24 °C 12.9 °C 50 % 6 km/h (14 km/h) 0 mm0 mm 60000 m 1023.5 hPa
10:42 23.9 °C 13.1 °C 51 % 5 km/h (9 km/h) 0 mm0 mm 60000 m 1023.5 hPa
10:36 23.8 °C 13.3 °C 52 % 5 km/h (8 km/h) 0 mm0 mm 60000 m 1023.5 hPa
10:30 23.3 °C 13.2 °C 53 % 4 km/h (8 km/h) 0 mm0 mm 60000 m 1023.5 hPa
10:24 23.1 °C 13.3 °C 54 % 5 km/h (12 km/h) 0 mm0 mm 60000 m 1023.5 hPa
10:18 23 °C 13.2 °C 54 % 5 km/h (12 km/h) 0 mm0 mm 60000 m 1023.6 hPa
10:12 22.7 °C 13.5 °C 56 % 5 km/h (9 km/h) 0 mm0 mm 60000 m 1023.6 hPa
10:06 22.1 °C 13.4 °C 58 % 5 km/h (9 km/h) 0 mm0 mm 60000 m 1023.6 hPa
10:00 22.1 °C 13.2 °C 57 % 5 km/h (12 km/h) 0 mm0 mm 60000 m 1023.4 hPa
09:54 21.7 °C 13.6 °C 60 % 5 km/h (12 km/h) 0 mm0 mm 60000 m 1023.3 hPa
09:48 21.4 °C 13.3 °C 60 % 6 km/h (8 km/h) 0 mm0 mm 60000 m 1023.3 hPa
09:42 20.9 °C 13.3 °C 62 % 6 km/h (10 km/h) 0 mm0 mm 60000 m 1023.4 hPa
09:36 20.6 °C 13.1 °C 62 % 6 km/h (12 km/h) 0 mm0 mm 60000 m 1023.5 hPa
09:30 20.2 °C 13.4 °C 65 % 6 km/h (9 km/h) 0 mm0 mm 60000 m 1023.5 hPa
09:24 19.6 °C 13.3 °C 67 % 7 km/h (10 km/h) 0 mm0 mm 60000 m 1023.5 hPa
09:18 19.4 °C 13.1 °C 67 % 6 km/h (10 km/h) 0 mm0 mm 60000 m 1023.5 hPa
09:12 19.3 °C 13.2 °C 68 % 5 km/h (7 km/h) 0 mm0 mm 60000 m 1023.5 hPa
09:06 19.2 °C 13.4 °C 69 % 4 km/h (6 km/h) 0 mm0 mm 60000 m 1023.5 hPa
09:00 18.9 °C 13.1 °C 69 % 2 km/h (4 km/h) 0 mm0 mm 60000 m 1023.5 hPa
08:54 17.8 °C 12.9 °C 73 % 2 km/h (5 km/h) 0 mm0 mm 60000 m 1023.6 hPa
08:48 17.5 °C 12.6 °C 73 % 3 km/h (5 km/h) 0 mm0 mm 60000 m 1023.6 hPa
08:42 17 °C 13.1 °C 78 % 2 km/h (4 km/h) 0 mm0 mm 60000 m 1023.6 hPa
08:36 16.3 °C 12.5 °C 78 % 2 km/h (2 km/h) 0 mm0 mm 60000 m 1023.7 hPa
08:30 16 °C 12.4 °C 79 % 0 km/h (2 km/h) 0 mm0 mm 60000 m 1023.6 hPa
08:24 15.5 °C 12.3 °C 81 % 0 km/h (2 km/h) 0 mm0 mm 60000 m 1023.6 hPa
08:18 15.1 °C 11.9 °C 81 % 0 km/h (4 km/h) 0 mm0 mm 60000 m 1023.7 hPa
08:12 15 °C 11.8 °C 81 % 2 km/h (4 km/h) 0 mm0 mm 60000 m 1023.8 hPa
08:06 14.4 °C 11.7 °C 84 % 0 km/h (2 km/h) 0 mm0 mm 60000 m 1023.7 hPa
08:00 14.2 °C 11.4 °C 83 % 0 km/h (3 km/h) 0 mm0 mm 60000 m 1023.7 hPa
07:54 14.3 °C 11.6 °C 84 % 2 km/h (4 km/h) 0 mm0 mm 60000 m 1023.5 hPa
07:48 13.8 °C 11.5 °C 86 % 0 km/h (3 km/h) 0 mm0 mm 60000 m 1023.6 hPa
07:42 13.6 °C 11.3 °C 86 % 0 km/h (3 km/h) 0 mm0 mm 60000 m 1023.6 hPa
07:36 13.7 °C 11.4 °C 86 % 0 km/h (3 km/h) 0 mm0 mm 60000 m 1023.6 hPa
07:30 13.7 °C 11.4 °C 86 % 0 km/h (3 km/h) 0 mm0 mm 60000 m 1023.5 hPa
07:24 14.1 °C 11.4 °C 84 % 0 km/h (4 km/h) 0 mm0 mm 60000 m 1023.5 hPa
07:18 14.2 °C 11.4 °C 83 % 2 km/h (5 km/h) 0 mm0 mm 60000 m 1023.4 hPa
07:12 14.6 °C 11.7 °C 83 % 3 km/h (5 km/h) 0 mm0 mm 60000 m 1023.2 hPa
07:06 14.7 °C 11.8 °C 83 % 4 km/h (7 km/h) 0 mm0 mm 60000 m 1023.1 hPa
07:00 14.9 °C 11.9 °C 82 % 6 km/h (8 km/h) 0 mm0 mm 60000 m 1022.9 hPa
06:54 14.9 °C 12 °C 83 % 8 km/h (8 km/h) 0 mm0 mm 60000 m 1022.9 hPa
06:48 15.1 °C 12.2 °C 83 % 8 km/h (11 km/h) 0 mm0 mm 60000 m 1022.8 hPa
06:42 15.2 °C 12.3 °C 83 % 10 km/h (11 km/h) 0 mm0 mm 60000 m 1022.8 hPa
06:36 15 °C 11.9 °C 82 % 10 km/h (11 km/h) 0 mm0 mm 60000 m 1022.9 hPa
06:30 15.3 °C 12.1 °C 81 % 8 km/h (11 km/h) 0 mm0 mm 60000 m 1022.8 hPa
06:24 15.3 °C 11.9 °C 80 % 6 km/h (9 km/h) 0 mm0 mm 60000 m 1022.7 hPa
06:18 15.5 °C 11.7 °C 78 % 7 km/h (9 km/h) 0 mm0 mm 60000 m 1022.7 hPa
06:12 15.5 °C 11.9 °C 79 % 8 km/h (9 km/h) 0 mm0 mm 60000 m 1022.7 hPa
06:06 15.3 °C 11.7 °C 79 % 9 km/h (10 km/h) 0 mm0 mm 60000 m 1022.7 hPa
06:00 15.5 °C 11.7 °C 78 % 9 km/h (10 km/h) 0 mm0 mm 60000 m 1022.7 hPa
05:54 15.8 °C 11.8 °C 77 % 9 km/h (11 km/h) 0 mm0 mm 60000 m 1022.5 hPa
05:48 15.9 °C 11.9 °C 77 % 10 km/h (11 km/h) 0 mm0 mm 60000 m 1022.5 hPa
05:42 15.9 °C 11.7 °C 76 % 9 km/h (11 km/h) 0 mm0 mm 60000 m 1022.5 hPa
05:36 16.1 °C 11.5 °C 74 % 8 km/h (10 km/h) 0 mm0 mm 60000 m 1022.5 hPa
05:30 15.7 °C 11.5 °C 76 % 9 km/h (10 km/h) 0 mm0 mm 60000 m 1022.4 hPa
05:24 14.8 °C 11 °C 78 % 6 km/h (10 km/h) 0 mm0 mm 60000 m 1022.5 hPa
05:18 14.7 °C 10.9 °C 78 % 4 km/h (7 km/h) 0 mm0 mm 60000 m 1022.5 hPa
05:12 14.6 °C 10.8 °C 78 % 4 km/h (5 km/h) 0 mm0 mm 60000 m 1022.5 hPa
05:06 14.7 °C 10.9 °C 78 % 4 km/h (7 km/h) 0 mm0 mm 60000 m 1022.5 hPa
05:00 14.7 °C 10.9 °C 78 % 5 km/h (7 km/h) 0 mm0 mm 60000 m 1022.5 hPa
04:54 14.9 °C 10.9 °C 77 % 4 km/h (7 km/h) 0 mm0 mm 60000 m 1022.4 hPa
04:48 14.9 °C 11.1 °C 78 % 4 km/h (6 km/h) 0 mm0 mm 60000 m 1022.3 hPa
04:42 15.1 °C 11.1 °C 77 % 6 km/h (10 km/h) 0 mm0 mm 60000 m 1022.3 hPa
04:36 15.2 °C 11.2 °C 77 % 7 km/h (10 km/h) 0 mm0 mm 60000 m 1022.3 hPa
04:30 15.2 °C 11 °C 76 % 5 km/h (8 km/h) 0 mm0 mm 60000 m 1022.3 hPa
04:24 15.4 °C 11.4 °C 77 % 3 km/h (5 km/h) 0 mm0 mm 60000 m 1022.2 hPa
04:18 15.4 °C 11.4 °C 77 % 2 km/h (4 km/h) 0 mm0 mm 60000 m 1022.2 hPa
04:12 15.5 °C 11.3 °C 76 % 0 km/h (3 km/h) 0 mm0 mm 60000 m 1022 hPa
04:06 15.5 °C 11.3 °C 76 % 3 km/h (5 km/h) 0 mm0 mm 60000 m 1022 hPa
04:00 15.7 °C 11.3 °C 75 % 3 km/h (5 km/h) 0 mm0 mm 60000 m 1022 hPa
03:54 15.9 °C 11.5 °C 75 % 5 km/h (8 km/h) 0 mm0 mm 60000 m 1022 hPa
03:48 16 °C 11.8 °C 76 % 5 km/h (8 km/h) 0 mm0 mm 60000 m 1022 hPa
03:42 15.9 °C 11.3 °C 74 % 3 km/h (5 km/h) 0 mm0 mm 60000 m 1021.9 hPa
03:36 16.1 °C 11.7 °C 75 % 4 km/h (6 km/h) 0 mm0 mm 60000 m 1021.8 hPa
03:30 16.3 °C 11.4 °C 73 % 3 km/h (6 km/h) 0 mm0 mm 60000 m 1021.9 hPa
03:24 16.4 °C 11.5 °C 73 % 0 km/h (2 km/h) 0 mm0 mm 60000 m 1021.7 hPa
03:18 16.5 °C 11.6 °C 73 % 0 km/h (3 km/h) 0 mm0 mm 60000 m 1021.8 hPa
03:12 16.7 °C 11.6 °C 72 % 0 km/h (3 km/h) 0 mm0 mm 60000 m 1021.8 hPa
03:06 17 °C 11.7 °C 71 % 0 km/h (3 km/h) 0 mm0 mm 60000 m 1021.9 hPa
03:00 17.3 °C 11.6 °C 69 % 0 km/h (3 km/h) 0 mm0 mm 60000 m 1021.8 hPa
02:54 17.7 °C 11.9 °C 69 % 0 km/h (3 km/h) 0 mm0 mm 60000 m 1021.9 hPa
02:48 17.8 °C 11.8 °C 68 % 0 km/h (2 km/h) 0 mm0 mm 60000 m 1021.9 hPa
02:42 18.1 °C 11.9 °C 67 % 0 km/h (3 km/h) 0 mm0 mm 60000 m 1021.8 hPa
02:36 18.4 °C 11.9 °C 66 % 2 km/h (3 km/h) 0 mm0 mm 60000 m 1021.8 hPa
02:30 18.6 °C 12.1 °C 66 % 2 km/h (4 km/h) 0 mm0 mm 60000 m 1021.7 hPa
02:24 18.8 °C 12.1 °C 65 % 2 km/h (4 km/h) 0 mm0 mm 60000 m 1021.6 hPa
02:18 19 °C 12 °C 64 % 4 km/h (7 km/h) 0 mm0 mm 60000 m 1021.7 hPa
02:12 19.5 °C 12 °C 62 % 6 km/h (9 km/h) 0 mm0 mm 60000 m 1021.8 hPa
02:06 19.9 °C 12.2 °C 61 % 7 km/h (9 km/h) 0 mm0 mm 60000 m 1021.7 hPa
02:00 20.1 °C 12.3 °C 61 % 7 km/h (9 km/h) 0 mm0 mm 60000 m 1021.7 hPa
01:54 20 °C 12.2 °C 61 % 7 km/h (8 km/h) 0 mm0 mm 60000 m 1021.6 hPa
01:48 20.1 °C 12.3 °C 61 % 8 km/h (9 km/h) 0 mm0 mm 60000 m 1021.6 hPa
01:42 20.1 °C 12.3 °C 61 % 8 km/h (9 km/h) 0 mm0 mm 60000 m 1021.5 hPa
01:36 20 °C 12.2 °C 61 % 9 km/h (12 km/h) 0 mm0 mm 60000 m 1021.5 hPa
01:30 20.3 °C 12.5 °C 61 % 11 km/h (12 km/h) 0 mm0 mm 60000 m 1021.4 hPa
01:24 20.6 °C 12.6 °C 60 % 11 km/h (13 km/h) 0 mm0 mm 60000 m 1021.4 hPa
01:18 20.7 °C 12.4 °C 59 % 11 km/h (14 km/h) 0 mm0 mm 60000 m 1021.4 hPa
01:12 20.7 °C 12.4 °C 59 % 10 km/h (12 km/h) 0 mm0 mm 60000 m 1021.4 hPa
01:06 20.7 °C 12.4 °C 59 % 10 km/h (12 km/h) 0 mm0 mm 60000 m 1021.3 hPa
01:00 20.9 °C 12.3 °C 58 % 11 km/h (14 km/h) 0 mm0 mm 60000 m 1021.2 hPa
00:54 21.1 °C 12.5 °C 58 % 12 km/h (14 km/h) 0 mm0 mm 60000 m 1021.1 hPa
00:48 20.9 °C 12.6 °C 59 % 12 km/h (14 km/h) 0 mm0 mm 60000 m 1021.1 hPa
00:42 21.3 °C 12.7 °C 58 % 12 km/h (15 km/h) 0 mm0 mm 60000 m 1020.9 hPa
00:36 21.7 °C 12.5 °C 56 % 13 km/h (16 km/h) 0 mm0 mm 60000 m 1020.9 hPa
00:30 21.3 °C 12.7 °C 58 % 13 km/h (16 km/h) 0 mm0 mm 60000 m 1020.9 hPa
00:24 21.3 °C 12.7 °C 58 % 13 km/h (14 km/h) 0 mm0 mm 60000 m 1020.9 hPa
00:18 21.3 °C 12.4 °C 57 % 13 km/h (15 km/h) 0 mm0 mm 60000 m 1021 hPa
00:12 21.6 °C 12.4 °C 56 % 12 km/h (15 km/h) 0 mm0 mm 60000 m 1020.9 hPa
00:06 21.7 °C 12.5 °C 56 % 12 km/h (14 km/h) 0 mm0 mm 60000 m 1020.9 hPa
00:00 21.8 °C 12.4 °C 55 % 12 km/h (14 km/h) 0 mm0 mm 60000 m 1020.9 hPa

Données via Météo-France

Relevés météo à Brive-Souillac

Cette page rassemble les observations de la station de Brive-Souillac : température, humidité, vent, précipitations et pression atmosphérique. Les graphiques facilitent le suivi de la journée, tandis que le tableau donne accès aux mesures horaires et infra-horaires disponibles.

Pour replacer ces mesures dans leur contexte, consultez la climatologie de Brive-Souillac ainsi que ses normales et records. Retrouvez aussi la carte des observations météo en temps réel.